sensor_id;sensor_type;location;lat;lon;timestamp;P1;durP1;ratioP1;P2;durP2;ratioP2
35691;SDS011;26978;44.830;-0.674;2023-04-21T00:00:54;2.08;;;1.55;;
35691;SDS011;26978;44.830;-0.674;2023-04-21T00:03:20;5.72;;;1.45;;
35691;SDS011;26978;44.830;-0.674;2023-04-21T00:05:50;5.88;;;1.70;;
35691;SDS011;26978;44.830;-0.674;2023-04-21T00:08:16;2.65;;;1.30;;
35691;SDS011;26978;44.830;-0.674;2023-04-21T00:10:42;3.50;;;1.63;;
35691;SDS011;26978;44.830;-0.674;2023-04-21T00:13:08;4.25;;;1.50;;
35691;SDS011;26978;44.830;-0.674;2023-04-21T00:15:34;3.80;;;1.50;;
35691;SDS011;26978;44.830;-0.674;2023-04-21T00:18:00;4.30;;;1.85;;
35691;SDS011;26978;44.830;-0.674;2023-04-21T00:20:27;5.18;;;1.60;;
35691;SDS011;26978;44.830;-0.674;2023-04-21T00:22:54;7.88;;;1.80;;
35691;SDS011;26978;44.830;-0.674;2023-04-21T00:25:20;3.75;;;1.98;;
35691;SDS011;26978;44.830;-0.674;2023-04-21T00:27:47;3.33;;;1.85;;
35691;SDS011;26978;44.830;-0.674;2023-04-21T00:30:12;3.65;;;1.70;;
35691;SDS011;26978;44.830;-0.674;2023-04-21T00:32:38;6.20;;;1.80;;
35691;SDS011;26978;44.830;-0.674;2023-04-21T00:35:04;3.88;;;1.80;;
35691;SDS011;26978;44.830;-0.674;2023-04-21T00:37:30;3.60;;;2.13;;
35691;SDS011;26978;44.830;-0.674;2023-04-21T00:39:56;4.38;;;1.67;;
35691;SDS011;26978;44.830;-0.674;2023-04-21T00:42:22;2.83;;;1.85;;
35691;SDS011;26978;44.830;-0.674;2023-04-21T00:44:48;5.82;;;2.30;;
35691;SDS011;26978;44.830;-0.674;2023-04-21T00:47:14;3.22;;;2.30;;
35691;SDS011;26978;44.830;-0.674;2023-04-21T00:49:40;6.88;;;2.30;;
35691;SDS011;26978;44.830;-0.674;2023-04-21T00:52:06;5.32;;;2.20;;
35691;SDS011;26978;44.830;-0.674;2023-04-21T00:54:36;4.97;;;2.05;;
35691;SDS011;26978;44.830;-0.674;2023-04-21T00:57:03;3.75;;;2.35;;
35691;SDS011;26978;44.830;-0.674;2023-04-21T00:59:31;9.27;;;3.00;;
35691;SDS011;26978;44.830;-0.674;2023-04-21T01:01:57;3.50;;;2.20;;
35691;SDS011;26978;44.830;-0.674;2023-04-21T01:04:23;11.82;;;2.47;;
35691;SDS011;26978;44.830;-0.674;2023-04-21T01:06:49;7.00;;;2.70;;
35691;SDS011;26978;44.830;-0.674;2023-04-21T01:09:15;6.18;;;2.88;;
35691;SDS011;26978;44.830;-0.674;2023-04-21T01:11:41;4.43;;;2.67;;
35691;SDS011;26978;44.830;-0.674;2023-04-21T01:14:07;3.30;;;2.20;;
35691;SDS011;26978;44.830;-0.674;2023-04-21T01:16:32;11.23;;;2.60;;
35691;SDS011;26978;44.830;-0.674;2023-04-21T01:19:01;3.92;;;2.38;;
35691;SDS011;26978;44.830;-0.674;2023-04-21T01:21:34;5.38;;;2.90;;
35691;SDS011;26978;44.830;-0.674;2023-04-21T01:24:02;4.65;;;2.85;;
35691;SDS011;26978;44.830;-0.674;2023-04-21T01:26:28;5.78;;;2.60;;
35691;SDS011;26978;44.830;-0.674;2023-04-21T01:28:55;4.45;;;2.88;;
35691;SDS011;26978;44.830;-0.674;2023-04-21T01:31:21;4.32;;;3.30;;
35691;SDS011;26978;44.830;-0.674;2023-04-21T01:33:48;5.75;;;2.88;;
35691;SDS011;26978;44.830;-0.674;2023-04-21T01:36:13;5.25;;;2.88;;
35691;SDS011;26978;44.830;-0.674;2023-04-21T01:38:40;6.22;;;2.80;;
35691;SDS011;26978;44.830;-0.674;2023-04-21T01:41:06;5.18;;;3.20;;
35691;SDS011;26978;44.830;-0.674;2023-04-21T01:43:33;10.77;;;3.20;;
35691;SDS011;26978;44.830;-0.674;2023-04-21T01:45:59;3.60;;;2.92;;
35691;SDS011;26978;44.830;-0.674;2023-04-21T01:48:24;4.35;;;3.10;;
35691;SDS011;26978;44.830;-0.674;2023-04-21T01:50:50;5.22;;;3.28;;
35691;SDS011;26978;44.830;-0.674;2023-04-21T01:53:16;6.55;;;3.28;;
35691;SDS011;26978;44.830;-0.674;2023-04-21T01:55:41;10.18;;;3.50;;
35691;SDS011;26978;44.830;-0.674;2023-04-21T01:58:07;7.03;;;3.25;;
35691;SDS011;26978;44.830;-0.674;2023-04-21T02:00:32;5.80;;;3.17;;
35691;SDS011;26978;44.830;-0.674;2023-04-21T02:02:58;6.30;;;2.70;;
35691;SDS011;26978;44.830;-0.674;2023-04-21T02:05:24;5.57;;;3.80;;
35691;SDS011;26978;44.830;-0.674;2023-04-21T02:07:49;7.85;;;3.53;;
35691;SDS011;26978;44.830;-0.674;2023-04-21T02:10:15;5.82;;;3.38;;
35691;SDS011;26978;44.830;-0.674;2023-04-21T02:12:41;5.53;;;3.22;;
35691;SDS011;26978;44.830;-0.674;2023-04-21T02:15:06;8.55;;;3.30;;
35691;SDS011;26978;44.830;-0.674;2023-04-21T02:17:32;7.43;;;2.80;;
35691;SDS011;26978;44.830;-0.674;2023-04-21T02:19:58;9.45;;;3.30;;
35691;SDS011;26978;44.830;-0.674;2023-04-21T02:22:24;8.05;;;3.60;;
35691;SDS011;26978;44.830;-0.674;2023-04-21T02:24:49;7.18;;;3.70;;
35691;SDS011;26978;44.830;-0.674;2023-04-21T02:27:15;8.35;;;3.42;;
35691;SDS011;26978;44.830;-0.674;2023-04-21T02:29:41;8.52;;;3.50;;
35691;SDS011;26978;44.830;-0.674;2023-04-21T02:32:06;5.07;;;3.67;;
35691;SDS011;26978;44.830;-0.674;2023-04-21T02:34:33;4.70;;;2.67;;
35691;SDS011;26978;44.830;-0.674;2023-04-21T02:36:58;8.50;;;3.35;;
35691;SDS011;26978;44.830;-0.674;2023-04-21T02:39:24;6.70;;;3.22;;
35691;SDS011;26978;44.830;-0.674;2023-04-21T02:41:50;5.43;;;2.97;;
35691;SDS011;26978;44.830;-0.674;2023-04-21T02:44:16;7.97;;;3.50;;
35691;SDS011;26978;44.830;-0.674;2023-04-21T02:46:42;11.43;;;3.38;;
35691;SDS011;26978;44.830;-0.674;2023-04-21T02:49:08;5.35;;;3.80;;
35691;SDS011;26978;44.830;-0.674;2023-04-21T02:51:34;7.82;;;3.63;;
35691;SDS011;26978;44.830;-0.674;2023-04-21T02:54:00;9.05;;;3.65;;
35691;SDS011;26978;44.830;-0.674;2023-04-21T02:56:25;7.82;;;3.40;;
35691;SDS011;26978;44.830;-0.674;2023-04-21T02:58:51;8.38;;;3.72;;
35691;SDS011;26978;44.830;-0.674;2023-04-21T03:01:17;7.05;;;3.97;;
35691;SDS011;26978;44.830;-0.674;2023-04-21T03:03:42;7.55;;;4.25;;
35691;SDS011;26978;44.830;-0.674;2023-04-21T03:06:08;6.13;;;3.63;;
35691;SDS011;26978;44.830;-0.674;2023-04-21T03:08:33;5.95;;;3.67;;
35691;SDS011;26978;44.830;-0.674;2023-04-21T03:10:59;5.63;;;3.70;;
35691;SDS011;26978;44.830;-0.674;2023-04-21T03:13:25;6.00;;;4.10;;
35691;SDS011;26978;44.830;-0.674;2023-04-21T03:15:51;6.10;;;3.97;;
35691;SDS011;26978;44.830;-0.674;2023-04-21T03:18:16;5.43;;;4.00;;
35691;SDS011;26978;44.830;-0.674;2023-04-21T03:20:42;6.07;;;4.10;;
35691;SDS011;26978;44.830;-0.674;2023-04-21T03:23:08;8.85;;;4.22;;
35691;SDS011;26978;44.830;-0.674;2023-04-21T03:25:34;6.10;;;3.75;;
35691;SDS011;26978;44.830;-0.674;2023-04-21T03:27:59;6.82;;;4.13;;
35691;SDS011;26978;44.830;-0.674;2023-04-21T03:30:25;13.82;;;4.65;;
35691;SDS011;26978;44.830;-0.674;2023-04-21T03:32:51;6.90;;;4.03;;
35691;SDS011;26978;44.830;-0.674;2023-04-21T03:35:17;7.13;;;4.00;;
35691;SDS011;26978;44.830;-0.674;2023-04-21T03:37:43;9.80;;;4.57;;
35691;SDS011;26978;44.830;-0.674;2023-04-21T03:40:08;9.27;;;4.07;;
35691;SDS011;26978;44.830;-0.674;2023-04-21T03:42:34;7.07;;;4.43;;
35691;SDS011;26978;44.830;-0.674;2023-04-21T03:45:04;10.45;;;5.25;;
35691;SDS011;26978;44.830;-0.674;2023-04-21T03:47:30;8.35;;;4.38;;
35691;SDS011;26978;44.830;-0.674;2023-04-21T03:49:56;7.75;;;4.57;;
35691;SDS011;26978;44.830;-0.674;2023-04-21T03:52:22;11.45;;;4.68;;
35691;SDS011;26978;44.830;-0.674;2023-04-21T03:54:48;12.52;;;4.60;;
35691;SDS011;26978;44.830;-0.674;2023-04-21T03:57:14;10.98;;;5.10;;
35691;SDS011;26978;44.830;-0.674;2023-04-21T03:59:40;8.60;;;4.10;;
35691;SDS011;26978;44.830;-0.674;2023-04-21T04:02:06;10.57;;;4.88;;
35691;SDS011;26978;44.830;-0.674;2023-04-21T04:04:32;7.30;;;4.15;;
35691;SDS011;26978;44.830;-0.674;2023-04-21T04:06:58;8.75;;;5.32;;
35691;SDS011;26978;44.830;-0.674;2023-04-21T04:09:24;6.20;;;4.90;;
35691;SDS011;26978;44.830;-0.674;2023-04-21T04:11:50;7.60;;;3.97;;
35691;SDS011;26978;44.830;-0.674;2023-04-21T04:14:15;12.48;;;5.20;;
35691;SDS011;26978;44.830;-0.674;2023-04-21T04:16:41;9.20;;;5.22;;
35691;SDS011;26978;44.830;-0.674;2023-04-21T04:19:07;13.23;;;4.80;;
35691;SDS011;26978;44.830;-0.674;2023-04-21T04:21:33;13.20;;;5.32;;
35691;SDS011;26978;44.830;-0.674;2023-04-21T04:23:59;9.90;;;4.80;;
35691;SDS011;26978;44.830;-0.674;2023-04-21T04:26:26;10.40;;;5.72;;
35691;SDS011;26978;44.830;-0.674;2023-04-21T04:28:53;8.18;;;5.57;;
35691;SDS011;26978;44.830;-0.674;2023-04-21T04:31:22;10.60;;;5.32;;
35691;SDS011;26978;44.830;-0.674;2023-04-21T04:33:49;7.53;;;4.60;;
35691;SDS011;26978;44.830;-0.674;2023-04-21T04:36:17;13.88;;;5.72;;
35691;SDS011;26978;44.830;-0.674;2023-04-21T04:38:43;12.65;;;5.35;;
35691;SDS011;26978;44.830;-0.674;2023-04-21T04:41:10;10.35;;;5.45;;
35691;SDS011;26978;44.830;-0.674;2023-04-21T04:43:36;12.68;;;5.78;;
35691;SDS011;26978;44.830;-0.674;2023-04-21T04:46:03;16.60;;;6.07;;
35691;SDS011;26978;44.830;-0.674;2023-04-21T04:48:29;9.88;;;5.88;;
35691;SDS011;26978;44.830;-0.674;2023-04-21T04:50:55;15.13;;;6.20;;
35691;SDS011;26978;44.830;-0.674;2023-04-21T04:53:20;9.68;;;5.85;;
35691;SDS011;26978;44.830;-0.674;2023-04-21T04:55:46;8.07;;;6.13;;
35691;SDS011;26978;44.830;-0.674;2023-04-21T04:58:12;13.98;;;6.40;;
35691;SDS011;26978;44.830;-0.674;2023-04-21T05:00:37;11.93;;;6.30;;
35691;SDS011;26978;44.830;-0.674;2023-04-21T05:03:03;11.60;;;7.10;;
35691;SDS011;26978;44.830;-0.674;2023-04-21T05:05:29;10.05;;;6.50;;
35691;SDS011;26978;44.830;-0.674;2023-04-21T05:07:55;11.07;;;6.18;;
35691;SDS011;26978;44.830;-0.674;2023-04-21T05:10:22;13.45;;;7.32;;
35691;SDS011;26978;44.830;-0.674;2023-04-21T05:12:48;13.55;;;6.90;;
35691;SDS011;26978;44.830;-0.674;2023-04-21T05:15:14;14.57;;;7.18;;
35691;SDS011;26978;44.830;-0.674;2023-04-21T05:17:40;14.57;;;6.75;;
35691;SDS011;26978;44.830;-0.674;2023-04-21T05:20:06;14.45;;;6.55;;
35691;SDS011;26978;44.830;-0.674;2023-04-21T05:22:36;13.50;;;6.32;;
35691;SDS011;26978;44.830;-0.674;2023-04-21T05:25:02;11.77;;;6.88;;
35691;SDS011;26978;44.830;-0.674;2023-04-21T05:27:28;14.10;;;6.68;;
35691;SDS011;26978;44.830;-0.674;2023-04-21T05:29:54;32.53;;;7.95;;
35691;SDS011;26978;44.830;-0.674;2023-04-21T05:32:20;26.20;;;8.40;;
35691;SDS011;26978;44.830;-0.674;2023-04-21T05:34:46;18.42;;;7.35;;
35691;SDS011;26978;44.830;-0.674;2023-04-21T05:37:11;19.25;;;7.10;;
35691;SDS011;26978;44.830;-0.674;2023-04-21T05:39:37;13.65;;;7.93;;
35691;SDS011;26978;44.830;-0.674;2023-04-21T05:42:03;18.17;;;9.68;;
35691;SDS011;26978;44.830;-0.674;2023-04-21T05:44:28;16.83;;;11.05;;
35691;SDS011;26978;44.830;-0.674;2023-04-21T05:46:54;13.73;;;10.70;;
35691;SDS011;26978;44.830;-0.674;2023-04-21T05:49:20;18.25;;;10.77;;
35691;SDS011;26978;44.830;-0.674;2023-04-21T05:51:45;15.88;;;11.30;;
35691;SDS011;26978;44.830;-0.674;2023-04-21T05:54:11;16.70;;;10.75;;
35691;SDS011;26978;44.830;-0.674;2023-04-21T05:56:37;18.45;;;10.43;;
35691;SDS011;26978;44.830;-0.674;2023-04-21T05:59:02;16.83;;;11.38;;
35691;SDS011;26978;44.830;-0.674;2023-04-21T06:01:30;18.42;;;10.63;;
35691;SDS011;26978;44.830;-0.674;2023-04-21T06:03:56;14.40;;;9.15;;
35691;SDS011;26978;44.830;-0.674;2023-04-21T06:06:22;13.73;;;8.68;;
35691;SDS011;26978;44.830;-0.674;2023-04-21T06:08:50;13.45;;;8.55;;
35691;SDS011;26978;44.830;-0.674;2023-04-21T06:11:16;14.13;;;8.35;;
35691;SDS011;26978;44.830;-0.674;2023-04-21T06:13:42;14.27;;;8.38;;
35691;SDS011;26978;44.830;-0.674;2023-04-21T06:16:07;14.13;;;8.68;;
35691;SDS011;26978;44.830;-0.674;2023-04-21T06:18:33;16.45;;;7.45;;
35691;SDS011;26978;44.830;-0.674;2023-04-21T06:20:58;15.77;;;8.05;;
35691;SDS011;26978;44.830;-0.674;2023-04-21T06:23:24;18.30;;;6.95;;
35691;SDS011;26978;44.830;-0.674;2023-04-21T06:25:59;15.30;;;7.15;;
35691;SDS011;26978;44.830;-0.674;2023-04-21T06:28:25;17.48;;;7.32;;
35691;SDS011;26978;44.830;-0.674;2023-04-21T06:30:51;12.63;;;6.82;;
35691;SDS011;26978;44.830;-0.674;2023-04-21T06:33:16;11.15;;;7.00;;
35691;SDS011;26978;44.830;-0.674;2023-04-21T06:35:42;15.35;;;7.05;;
35691;SDS011;26978;44.830;-0.674;2023-04-21T06:38:08;15.43;;;6.75;;
35691;SDS011;26978;44.830;-0.674;2023-04-21T06:40:33;13.25;;;7.30;;
35691;SDS011;26978;44.830;-0.674;2023-04-21T06:42:59;14.82;;;7.03;;
35691;SDS011;26978;44.830;-0.674;2023-04-21T06:45:25;14.23;;;7.28;;
35691;SDS011;26978;44.830;-0.674;2023-04-21T06:47:50;18.38;;;6.90;;
35691;SDS011;26978;44.830;-0.674;2023-04-21T06:50:16;10.30;;;6.20;;
35691;SDS011;26978;44.830;-0.674;2023-04-21T06:52:42;11.57;;;7.70;;
35691;SDS011;26978;44.830;-0.674;2023-04-21T06:55:07;14.60;;;7.78;;
35691;SDS011;26978;44.830;-0.674;2023-04-21T06:57:33;9.85;;;6.47;;
35691;SDS011;26978;44.830;-0.674;2023-04-21T06:59:59;8.88;;;6.72;;
35691;SDS011;26978;44.830;-0.674;2023-04-21T07:02:24;17.95;;;7.25;;
35691;SDS011;26978;44.830;-0.674;2023-04-21T07:04:50;12.00;;;6.40;;
35691;SDS011;26978;44.830;-0.674;2023-04-21T07:07:15;11.63;;;7.00;;
35691;SDS011;26978;44.830;-0.674;2023-04-21T07:09:41;12.30;;;7.30;;
35691;SDS011;26978;44.830;-0.674;2023-04-21T07:12:11;15.68;;;7.38;;
35691;SDS011;26978;44.830;-0.674;2023-04-21T07:14:36;10.38;;;6.85;;
35691;SDS011;26978;44.830;-0.674;2023-04-21T07:17:02;10.85;;;6.28;;
35691;SDS011;26978;44.830;-0.674;2023-04-21T07:19:28;11.40;;;7.32;;
35691;SDS011;26978;44.830;-0.674;2023-04-21T07:21:53;10.60;;;7.32;;
35691;SDS011;26978;44.830;-0.674;2023-04-21T07:24:19;16.13;;;7.47;;
35691;SDS011;26978;44.830;-0.674;2023-04-21T07:26:44;15.73;;;6.88;;
35691;SDS011;26978;44.830;-0.674;2023-04-21T07:29:10;14.98;;;6.60;;
35691;SDS011;26978;44.830;-0.674;2023-04-21T07:31:36;13.85;;;6.75;;
35691;SDS011;26978;44.830;-0.674;2023-04-21T07:34:01;16.05;;;6.63;;
35691;SDS011;26978;44.830;-0.674;2023-04-21T07:36:27;11.60;;;6.85;;
35691;SDS011;26978;44.830;-0.674;2023-04-21T07:38:53;9.82;;;6.82;;
35691;SDS011;26978;44.830;-0.674;2023-04-21T07:41:18;19.15;;;7.68;;
35691;SDS011;26978;44.830;-0.674;2023-04-21T07:43:44;12.18;;;7.38;;
35691;SDS011;26978;44.830;-0.674;2023-04-21T07:46:10;22.95;;;7.70;;
35691;SDS011;26978;44.830;-0.674;2023-04-21T07:48:37;11.65;;;6.82;;
35691;SDS011;26978;44.830;-0.674;2023-04-21T07:51:03;11.88;;;7.22;;
35691;SDS011;26978;44.830;-0.674;2023-04-21T07:53:29;11.45;;;6.82;;
35691;SDS011;26978;44.830;-0.674;2023-04-21T07:55:55;11.82;;;7.45;;
35691;SDS011;26978;44.830;-0.674;2023-04-21T07:58:21;10.32;;;6.60;;
35691;SDS011;26978;44.830;-0.674;2023-04-21T08:00:47;16.92;;;7.05;;
35691;SDS011;26978;44.830;-0.674;2023-04-21T08:03:13;12.77;;;6.78;;
35691;SDS011;26978;44.830;-0.674;2023-04-21T08:05:39;11.90;;;6.80;;
35691;SDS011;26978;44.830;-0.674;2023-04-21T08:08:05;13.48;;;7.35;;
35691;SDS011;26978;44.830;-0.674;2023-04-21T08:10:31;13.05;;;7.85;;
35691;SDS011;26978;44.830;-0.674;2023-04-21T08:12:57;12.43;;;6.55;;
35691;SDS011;26978;44.830;-0.674;2023-04-21T08:15:23;17.60;;;7.68;;
35691;SDS011;26978;44.830;-0.674;2023-04-21T08:17:49;15.13;;;7.50;;
35691;SDS011;26978;44.830;-0.674;2023-04-21T08:20:15;11.60;;;7.20;;
35691;SDS011;26978;44.830;-0.674;2023-04-21T08:22:41;15.88;;;7.55;;
35691;SDS011;26978;44.830;-0.674;2023-04-21T08:25:07;16.33;;;8.10;;
35691;SDS011;26978;44.830;-0.674;2023-04-21T08:27:33;13.27;;;7.60;;
35691;SDS011;26978;44.830;-0.674;2023-04-21T08:30:01;14.55;;;7.78;;
35691;SDS011;26978;44.830;-0.674;2023-04-21T08:32:27;17.48;;;8.40;;
35691;SDS011;26978;44.830;-0.674;2023-04-21T08:34:53;14.95;;;7.55;;
35691;SDS011;26978;44.830;-0.674;2023-04-21T08:37:19;14.80;;;7.15;;
35691;SDS011;26978;44.830;-0.674;2023-04-21T08:39:45;15.40;;;6.93;;
35691;SDS011;26978;44.830;-0.674;2023-04-21T08:42:12;16.35;;;8.38;;
35691;SDS011;26978;44.830;-0.674;2023-04-21T08:44:39;12.52;;;7.53;;
35691;SDS011;26978;44.830;-0.674;2023-04-21T08:47:05;15.15;;;6.97;;
35691;SDS011;26978;44.830;-0.674;2023-04-21T08:49:37;21.33;;;8.00;;
35691;SDS011;26978;44.830;-0.674;2023-04-21T08:52:04;11.68;;;7.18;;
35691;SDS011;26978;44.830;-0.674;2023-04-21T08:54:30;15.07;;;8.00;;
35691;SDS011;26978;44.830;-0.674;2023-04-21T08:56:56;12.95;;;7.25;;
35691;SDS011;26978;44.830;-0.674;2023-04-21T08:59:22;13.40;;;6.43;;
35691;SDS011;26978;44.830;-0.674;2023-04-21T09:04:34;12.00;;;6.70;;
35691;SDS011;26978;44.830;-0.674;2023-04-21T09:07:03;8.02;;;5.47;;
35691;SDS011;26978;44.830;-0.674;2023-04-21T09:09:29;9.82;;;5.43;;
35691;SDS011;26978;44.830;-0.674;2023-04-21T09:11:55;14.82;;;5.53;;
35691;SDS011;26978;44.830;-0.674;2023-04-21T09:14:27;12.23;;;5.80;;
35691;SDS011;26978;44.830;-0.674;2023-04-21T09:16:59;8.30;;;4.90;;
35691;SDS011;26978;44.830;-0.674;2023-04-21T09:19:29;7.60;;;4.70;;
35691;SDS011;26978;44.830;-0.674;2023-04-21T09:21:57;9.60;;;4.80;;
35691;SDS011;26978;44.830;-0.674;2023-04-21T09:24:24;13.60;;;4.88;;
35691;SDS011;26978;44.830;-0.674;2023-04-21T09:26:50;9.65;;;4.20;;
35691;SDS011;26978;44.830;-0.674;2023-04-21T09:29:17;8.48;;;4.05;;
35691;SDS011;26978;44.830;-0.674;2023-04-21T09:31:45;12.02;;;4.28;;
35691;SDS011;26978;44.830;-0.674;2023-04-21T09:34:18;9.85;;;4.22;;
35691;SDS011;26978;44.830;-0.674;2023-04-21T09:36:47;6.28;;;3.92;;
35691;SDS011;26978;44.830;-0.674;2023-04-21T09:39:12;9.52;;;4.47;;
35691;SDS011;26978;44.830;-0.674;2023-04-21T09:41:38;8.15;;;4.03;;
35691;SDS011;26978;44.830;-0.674;2023-04-21T09:44:04;5.28;;;4.10;;
35691;SDS011;26978;44.830;-0.674;2023-04-21T09:46:34;12.30;;;3.90;;
35691;SDS011;26978;44.830;-0.674;2023-04-21T09:49:00;6.38;;;4.25;;
35691;SDS011;26978;44.830;-0.674;2023-04-21T09:51:27;6.70;;;3.28;;
35691;SDS011;26978;44.830;-0.674;2023-04-21T09:53:58;5.90;;;3.22;;
35691;SDS011;26978;44.830;-0.674;2023-04-21T09:56:28;8.30;;;3.58;;
35691;SDS011;26978;44.830;-0.674;2023-04-21T09:58:57;7.20;;;3.33;;
35691;SDS011;26978;44.830;-0.674;2023-04-21T10:01:28;6.07;;;3.05;;
35691;SDS011;26978;44.830;-0.674;2023-04-21T10:03:54;16.13;;;3.25;;
35691;SDS011;26978;44.830;-0.674;2023-04-21T10:06:20;10.15;;;3.67;;
35691;SDS011;26978;44.830;-0.674;2023-04-21T10:08:47;12.15;;;3.60;;
35691;SDS011;26978;44.830;-0.674;2023-04-21T10:11:14;7.22;;;3.33;;
35691;SDS011;26978;44.830;-0.674;2023-04-21T10:13:42;4.85;;;3.35;;
35691;SDS011;26978;44.830;-0.674;2023-04-21T10:16:08;8.82;;;3.00;;
35691;SDS011;26978;44.830;-0.674;2023-04-21T10:18:38;8.00;;;2.85;;
35691;SDS011;26978;44.830;-0.674;2023-04-21T10:21:08;9.88;;;3.35;;
35691;SDS011;26978;44.830;-0.674;2023-04-21T10:26:05;5.55;;;2.72;;
35691;SDS011;26978;44.830;-0.674;2023-04-21T10:28:56;11.63;;;2.28;;
35691;SDS011;26978;44.830;-0.674;2023-04-21T10:34:11;7.80;;;3.00;;
35691;SDS011;26978;44.830;-0.674;2023-04-21T10:39:28;11.20;;;1.90;;
35691;SDS011;26978;44.830;-0.674;2023-04-21T10:47:28;4.82;;;2.10;;
35691;SDS011;26978;44.830;-0.674;2023-04-21T10:50:19;5.93;;;2.63;;
35691;SDS011;26978;44.830;-0.674;2023-04-21T10:52:46;5.97;;;2.28;;
35691;SDS011;26978;44.830;-0.674;2023-04-21T10:55:19;4.80;;;2.45;;
35691;SDS011;26978;44.830;-0.674;2023-04-21T10:57:46;10.10;;;2.50;;
35691;SDS011;26978;44.830;-0.674;2023-04-21T11:00:17;6.63;;;2.90;;
35691;SDS011;26978;44.830;-0.674;2023-04-21T11:02:51;10.57;;;2.85;;
35691;SDS011;26978;44.830;-0.674;2023-04-21T11:05:25;3.80;;;2.70;;
35691;SDS011;26978;44.830;-0.674;2023-04-21T11:08:00;7.50;;;2.92;;
35691;SDS011;26978;44.830;-0.674;2023-04-21T11:10:27;13.50;;;2.67;;
35691;SDS011;26978;44.830;-0.674;2023-04-21T11:12:52;7.22;;;2.72;;
35691;SDS011;26978;44.830;-0.674;2023-04-21T11:15:21;7.57;;;2.60;;
35691;SDS011;26978;44.830;-0.674;2023-04-21T11:17:47;6.45;;;2.08;;
35691;SDS011;26978;44.830;-0.674;2023-04-21T11:20:14;7.63;;;2.22;;
35691;SDS011;26978;44.830;-0.674;2023-04-21T11:22:39;2.80;;;2.10;;
35691;SDS011;26978;44.830;-0.674;2023-04-21T11:25:05;5.95;;;2.17;;
35691;SDS011;26978;44.830;-0.674;2023-04-21T11:27:41;3.55;;;2.00;;
35691;SDS011;26978;44.830;-0.674;2023-04-21T11:32:42;5.45;;;2.00;;
35691;SDS011;26978;44.830;-0.674;2023-04-21T11:35:07;4.57;;;2.22;;
35691;SDS011;26978;44.830;-0.674;2023-04-21T11:37:33;5.13;;;2.22;;
35691;SDS011;26978;44.830;-0.674;2023-04-21T11:39:59;6.35;;;2.13;;
35691;SDS011;26978;44.830;-0.674;2023-04-21T11:42:25;3.45;;;2.05;;
35691;SDS011;26978;44.830;-0.674;2023-04-21T11:44:55;7.03;;;2.13;;
35691;SDS011;26978;44.830;-0.674;2023-04-21T11:47:22;5.30;;;1.67;;
35691;SDS011;26978;44.830;-0.674;2023-04-21T11:50:01;6.22;;;2.00;;
35691;SDS011;26978;44.830;-0.674;2023-04-21T11:57:38;4.63;;;2.53;;
35691;SDS011;26978;44.830;-0.674;2023-04-21T12:00:04;9.10;;;2.42;;
35691;SDS011;26978;44.830;-0.674;2023-04-21T12:02:32;5.05;;;2.45;;
35691;SDS011;26978;44.830;-0.674;2023-04-21T12:05:02;6.20;;;1.90;;
35691;SDS011;26978;44.830;-0.674;2023-04-21T12:07:33;4.75;;;1.88;;
35691;SDS011;26978;44.830;-0.674;2023-04-21T12:10:10;4.47;;;1.70;;
35691;SDS011;26978;44.830;-0.674;2023-04-21T12:12:37;6.87;;;2.10;;
35691;SDS011;26978;44.830;-0.674;2023-04-21T12:15:07;3.63;;;1.67;;
35691;SDS011;26978;44.830;-0.674;2023-04-21T12:17:38;5.35;;;1.80;;
35691;SDS011;26978;44.830;-0.674;2023-04-21T12:20:15;3.25;;;1.70;;
35691;SDS011;26978;44.830;-0.674;2023-04-21T12:22:45;3.00;;;1.80;;
35691;SDS011;26978;44.830;-0.674;2023-04-21T12:25:12;3.88;;;1.60;;
35691;SDS011;26978;44.830;-0.674;2023-04-21T12:27:48;5.78;;;1.80;;
35691;SDS011;26978;44.830;-0.674;2023-04-21T12:30:14;2.00;;;1.48;;
35691;SDS011;26978;44.830;-0.674;2023-04-21T12:32:41;5.93;;;1.88;;
35691;SDS011;26978;44.830;-0.674;2023-04-21T12:35:06;5.13;;;1.73;;
35691;SDS011;26978;44.830;-0.674;2023-04-21T12:37:33;3.20;;;1.80;;
35691;SDS011;26978;44.830;-0.674;2023-04-21T12:39:58;6.72;;;1.70;;
35691;SDS011;26978;44.830;-0.674;2023-04-21T12:42:24;2.17;;;1.70;;
35691;SDS011;26978;44.830;-0.674;2023-04-21T12:44:50;3.08;;;1.70;;
35691;SDS011;26978;44.830;-0.674;2023-04-21T12:47:15;3.10;;;1.70;;
35691;SDS011;26978;44.830;-0.674;2023-04-21T12:49:41;5.25;;;1.73;;
35691;SDS011;26978;44.830;-0.674;2023-04-21T12:52:06;2.83;;;1.80;;
35691;SDS011;26978;44.830;-0.674;2023-04-21T12:54:32;2.88;;;1.55;;
35691;SDS011;26978;44.830;-0.674;2023-04-21T12:56:58;6.90;;;1.60;;
35691;SDS011;26978;44.830;-0.674;2023-04-21T12:59:24;4.38;;;1.70;;
35691;SDS011;26978;44.830;-0.674;2023-04-21T13:01:50;3.70;;;2.10;;
35691;SDS011;26978;44.830;-0.674;2023-04-21T13:04:15;7.57;;;1.80;;
35691;SDS011;26978;44.830;-0.674;2023-04-21T13:06:41;6.43;;;1.50;;
35691;SDS011;26978;44.830;-0.674;2023-04-21T13:09:07;3.33;;;1.60;;
35691;SDS011;26978;44.830;-0.674;2023-04-21T13:11:32;5.68;;;1.60;;
35691;SDS011;26978;44.830;-0.674;2023-04-21T13:13:58;2.45;;;1.38;;
35691;SDS011;26978;44.830;-0.674;2023-04-21T13:16:24;2.58;;;1.58;;
35691;SDS011;26978;44.830;-0.674;2023-04-21T13:18:49;3.78;;;1.52;;
35691;SDS011;26978;44.830;-0.674;2023-04-21T13:21:15;3.55;;;1.52;;
35691;SDS011;26978;44.830;-0.674;2023-04-21T13:23:41;6.93;;;1.33;;
35691;SDS011;26978;44.830;-0.674;2023-04-21T13:26:06;4.50;;;1.33;;
35691;SDS011;26978;44.830;-0.674;2023-04-21T13:28:33;2.97;;;1.45;;
35691;SDS011;26978;44.830;-0.674;2023-04-21T13:30:58;4.18;;;1.50;;
35691;SDS011;26978;44.830;-0.674;2023-04-21T13:33:25;4.50;;;1.30;;
35691;SDS011;26978;44.830;-0.674;2023-04-21T13:35:51;1.48;;;1.10;;
35691;SDS011;26978;44.830;-0.674;2023-04-21T13:38:16;4.18;;;1.17;;
35691;SDS011;26978;44.830;-0.674;2023-04-21T13:40:42;2.13;;;1.40;;
35691;SDS011;26978;44.830;-0.674;2023-04-21T13:43:09;1.80;;;1.30;;
35691;SDS011;26978;44.830;-0.674;2023-04-21T13:45:36;2.67;;;1.45;;
35691;SDS011;26978;44.830;-0.674;2023-04-21T13:48:02;1.60;;;1.25;;
35691;SDS011;26978;44.830;-0.674;2023-04-21T13:50:28;4.15;;;1.35;;
35691;SDS011;26978;44.830;-0.674;2023-04-21T13:52:53;2.50;;;1.27;;
35691;SDS011;26978;44.830;-0.674;2023-04-21T13:55:19;1.50;;;1.20;;
35691;SDS011;26978;44.830;-0.674;2023-04-21T13:57:45;5.03;;;1.55;;
35691;SDS011;26978;44.830;-0.674;2023-04-21T14:00:11;2.50;;;1.27;;
35691;SDS011;26978;44.830;-0.674;2023-04-21T14:02:37;3.90;;;1.10;;
35691;SDS011;26978;44.830;-0.674;2023-04-21T14:05:03;2.17;;;1.17;;
35691;SDS011;26978;44.830;-0.674;2023-04-21T14:07:29;3.85;;;1.23;;
35691;SDS011;26978;44.830;-0.674;2023-04-21T14:09:55;2.33;;;1.38;;
35691;SDS011;26978;44.830;-0.674;2023-04-21T14:12:22;3.40;;;1.30;;
35691;SDS011;26978;44.830;-0.674;2023-04-21T14:14:50;4.82;;;1.67;;
35691;SDS011;26978;44.830;-0.674;2023-04-21T14:17:15;5.25;;;1.40;;
35691;SDS011;26978;44.830;-0.674;2023-04-21T14:19:41;2.42;;;1.10;;
35691;SDS011;26978;44.830;-0.674;2023-04-21T14:22:07;1.58;;;1.13;;
35691;SDS011;26978;44.830;-0.674;2023-04-21T14:24:33;1.35;;;1.02;;
35691;SDS011;26978;44.830;-0.674;2023-04-21T14:26:58;2.28;;;1.40;;
35691;SDS011;26978;44.830;-0.674;2023-04-21T14:29:24;2.22;;;1.40;;
35691;SDS011;26978;44.830;-0.674;2023-04-21T14:31:50;2.40;;;1.25;;
35691;SDS011;26978;44.830;-0.674;2023-04-21T14:34:17;4.05;;;1.30;;
35691;SDS011;26978;44.830;-0.674;2023-04-21T14:36:43;1.95;;;1.13;;
35691;SDS011;26978;44.830;-0.674;2023-04-21T14:39:13;4.15;;;1.20;;
35691;SDS011;26978;44.830;-0.674;2023-04-21T14:41:39;2.50;;;1.13;;
35691;SDS011;26978;44.830;-0.674;2023-04-21T14:44:05;1.38;;;0.90;;
35691;SDS011;26978;44.830;-0.674;2023-04-21T14:46:30;3.17;;;1.10;;
35691;SDS011;26978;44.830;-0.674;2023-04-21T14:48:56;11.20;;;1.73;;